Cincinnati, Ohio
Traffic Map
Current Weather Conditions
Cincinnati, Ohio
Broken Clouds
Broken Clouds
76°
Feels Like: 76°
Wind Chill: 76° Ceiling: 6000
Heat Index: 76° Visibility: 10mi
Dew Point: 57° Wind: 13mph
Humidity: 52% Direction: 10° (N)
Pressure: 30.05in Gusts: 0mph
Raw Report DataKLUK 241853Z 01011KT 10SM FEW049 BKN060 24/14 A3005 RMK AO2 SLP172 T02440139
Traffic Incident Summary
Active as of:
Severity:
Category:
InformationThere was an issue retrieving the traffic information for this location. Please try a different location or try again shortly.
Advertisements
Track Severe Weather on mobile